Time;durP1;ratioP1;P1;durP2;ratioP2;P2;SDS_P1;SDS_P2;PMS_P1;PMS_P2;Temp;Humidity;BMP_temperature;BMP_pressure;BME280_temperature;BME280_humidity;BME280_pressure;Samples;Min_cycle;Max_cycle;Signal;HPM_P1;HPM_P2
2023/10/23 00:02:38;;;;;;;17.70;4.88;;;5.40;99.90;;;;;;5006728;28;20080;-85
2023/10/23 00:05:25;;;;;;;9.93;4.50;;;5.50;99.90;;;;;;5014468;28;20042;-84
2023/10/23 00:08:13;;;;;;;11.07;5.25;;;5.50;99.90;;;;;;5012210;28;20049;-84
2023/10/23 00:11:00;;;;;;;11.63;3.85;;;5.50;99.90;;;;;;5022990;28;20068;-84
2023/10/23 00:13:50;;;;;;;12.55;4.03;;;5.50;99.90;;;;;;5009528;28;20319;-83
2023/10/23 00:16:37;;;;;;;12.23;4.05;;;5.50;99.90;;;;;;5021148;28;20053;-84
2023/10/23 00:19:27;;;;;;;9.43;3.83;;;5.50;99.90;;;;;;5019104;28;20100;-85
2023/10/23 00:22:16;;;;;;;14.57;3.85;;;5.60;99.90;;;;;;5003248;28;20061;-83
2023/10/23 00:25:04;;;;;;;12.00;4.20;;;5.60;99.90;;;;;;5014394;28;20038;-84
2023/10/23 00:27:51;;;;;;;14.57;3.72;;;5.70;99.90;;;;;;5013001;28;20054;-83
2023/10/23 00:30:38;;;;;;;10.40;4.78;;;5.80;99.90;;;;;;5004357;28;20053;-83
2023/10/23 00:33:26;;;;;;;11.73;4.20;;;5.90;99.90;;;;;;5001859;28;20045;-84
2023/10/23 00:36:16;;;;;;;18.27;4.45;;;5.90;99.90;;;;;;5020031;28;20470;-84
2023/10/23 00:39:07;;;;;;;7.50;3.72;;;6.00;99.90;;;;;;5016365;28;20109;-84
2023/10/23 00:41:56;;;;;;;12.75;4.78;;;6.00;99.90;;;;;;5004215;28;20049;-84
2023/10/23 00:44:44;;;;;;;16.85;4.57;;;5.90;99.90;;;;;;5014345;28;20061;-84
2023/10/23 00:47:33;;;;;;;9.15;4.38;;;5.80;99.90;;;;;;5019492;28;20462;-84
2023/10/23 00:50:20;;;;;;;16.33;5.32;;;5.70;99.90;;;;;;5023092;28;20050;-83
2023/10/23 00:53:08;;;;;;;15.18;5.30;;;5.70;99.90;;;;;;4998949;28;20053;-85
2023/10/23 00:55:58;;;;;;;14.60;4.78;;;5.70;99.90;;;;;;5015437;28;20331;-83
2023/10/23 00:58:48;;;;;;;16.48;5.30;;;5.60;99.90;;;;;;5013724;28;20124;-82
2023/10/23 01:01:36;;;;;;;13.50;5.25;;;5.50;99.90;;;;;;5003727;28;20374;-85
2023/10/23 01:04:27;;;;;;;8.57;4.57;;;5.60;99.90;;;;;;5016408;28;20046;-83
2023/10/23 01:07:14;;;;;;;11.32;4.40;;;5.60;99.90;;;;;;5020117;28;20057;-84
2023/10/23 01:10:01;;;;;;;9.73;4.30;;;5.50;99.90;;;;;;5013811;28;20050;-84
2023/10/23 01:12:48;;;;;;;11.18;3.95;;;5.50;99.90;;;;;;5019007;28;20057;-84
2023/10/23 01:15:36;;;;;;;10.88;4.13;;;5.40;99.90;;;;;;5016920;28;20129;-84
2023/10/23 01:18:23;;;;;;;6.15;3.88;;;5.30;99.90;;;;;;5015282;28;20184;-82
2023/10/23 01:21:11;;;;;;;10.30;3.75;;;5.20;99.90;;;;;;5025230;28;20126;-80
2023/10/23 01:24:03;;;;;;;10.27;3.88;;;5.10;99.90;;;;;;5008701;28;20046;-84
2023/10/23 01:26:50;;;;;;;11.50;4.65;;;5.00;99.90;;;;;;5013539;28;20049;-84
2023/10/23 01:29:42;;;;;;;12.00;4.45;;;5.00;99.90;;;;;;5015267;28;20128;-84
2023/10/23 01:32:31;;;;;;;11.87;4.20;;;5.00;99.90;;;;;;5028248;28;20091;-83
2023/10/23 01:35:18;;;;;;;8.77;4.45;;;5.00;99.90;;;;;;4993460;28;20349;-84
2023/10/23 01:38:05;;;;;;;11.52;4.22;;;4.90;99.90;;;;;;5017039;28;20052;-84
2023/10/23 01:40:55;;;;;;;7.88;4.68;;;4.90;99.90;;;;;;5015700;28;20415;-84
2023/10/23 01:43:42;;;;;;;11.65;4.53;;;4.90;99.90;;;;;;5012378;28;20056;-85
2023/10/23 01:46:29;;;;;;;9.25;4.05;;;4.80;99.90;;;;;;5019416;28;20134;-85
2023/10/23 01:49:17;;;;;;;13.25;4.82;;;4.80;99.90;;;;;;5016316;28;20109;-85
2023/10/23 01:52:06;;;;;;;7.35;4.40;;;4.70;99.90;;;;;;5025946;28;20049;-77
2023/10/23 01:54:58;;;;;;;11.75;4.40;;;4.50;99.90;;;;;;5027897;28;20136;-82
2023/10/23 01:57:45;;;;;;;14.27;4.65;;;4.40;99.90;;;;;;5030565;28;20172;-84
2023/10/23 02:00:32;;;;;;;11.70;5.05;;;4.40;99.90;;;;;;5016308;28;20053;-77
2023/10/23 02:03:22;;;;;;;11.27;4.80;;;4.50;99.90;;;;;;5015378;28;20042;-83
2023/10/23 02:06:10;;;;;;;13.70;4.90;;;4.50;99.90;;;;;;5022487;28;20276;-84
2023/10/23 02:08:59;;;;;;;9.25;4.72;;;4.40;99.90;;;;;;5010878;28;20046;-84
2023/10/23 02:11:46;;;;;;;10.57;4.82;;;4.30;99.90;;;;;;5026954;28;20046;-84
2023/10/23 02:14:33;;;;;;;9.90;5.13;;;4.20;99.90;;;;;;5012559;28;20049;-84
2023/10/23 02:17:23;;;;;;;12.95;5.10;;;4.00;99.90;;;;;;5021501;28;20052;-84
2023/10/23 02:20:12;;;;;;;11.27;5.20;;;4.00;99.90;;;;;;5030820;28;20057;-84
2023/10/23 02:22:59;;;;;;;14.77;5.30;;;4.10;99.90;;;;;;5023840;28;20343;-80
2023/10/23 02:25:49;;;;;;;12.13;5.90;;;4.10;99.90;;;;;;5015591;28;20323;-83
2023/10/23 02:28:39;;;;;;;11.73;6.03;;;4.00;99.90;;;;;;5028111;28;20050;-83
2023/10/23 02:31:26;;;;;;;11.10;5.68;;;4.00;99.90;;;;;;5000582;28;20050;-84
2023/10/23 02:34:15;;;;;;;14.63;5.72;;;4.00;99.90;;;;;;5010170;28;20042;-85
2023/10/23 02:37:03;;;;;;;11.05;5.82;;;3.90;99.90;;;;;;5007517;28;20042;-84
2023/10/23 02:39:51;;;;;;;12.13;5.32;;;3.90;99.90;;;;;;5032440;28;20670;-85
2023/10/23 02:42:41;;;;;;;13.45;5.95;;;3.90;99.90;;;;;;5002047;28;20050;-78
2023/10/23 02:45:28;;;;;;;13.70;6.40;;;3.90;99.90;;;;;;5014447;28;20042;-85
2023/10/23 02:48:19;;;;;;;16.02;6.80;;;3.80;99.90;;;;;;5004003;28;20140;-85
2023/10/23 02:51:06;;;;;;;16.10;6.93;;;3.80;99.90;;;;;;5016416;28;20502;-84
2023/10/23 02:53:53;;;;;;;13.65;6.60;;;3.80;99.90;;;;;;5015288;28;20069;-81
2023/10/23 02:56:40;;;;;;;13.50;6.55;;;3.80;99.90;;;;;;5025073;28;20037;-85
2023/10/23 02:59:30;;;;;;;16.02;6.63;;;3.90;99.90;;;;;;5015236;28;20045;-82
2023/10/23 03:02:21;;;;;;;15.85;6.70;;;4.00;99.90;;;;;;5014511;28;20045;-83
2023/10/23 03:05:08;;;;;;;18.52;6.47;;;3.90;99.90;;;;;;5020609;28;20045;-84
2023/10/23 03:07:55;;;;;;;16.05;7.93;;;3.90;99.90;;;;;;5002909;28;20049;-85
2023/10/23 03:10:42;;;;;;;10.55;7.25;;;3.90;99.90;;;;;;5014772;28;20045;-86
2023/10/23 03:13:32;;;;;;;14.65;7.40;;;4.00;99.90;;;;;;5026100;28;20053;-85
2023/10/23 03:16:19;;;;;;;10.65;6.70;;;4.10;99.90;;;;;;5014188;28;20045;-85
2023/10/23 03:19:06;;;;;;;12.05;7.20;;;4.20;99.90;;;;;;5003050;28;20053;-84
2023/10/23 03:21:53;;;;;;;14.57;7.03;;;4.10;99.90;;;;;;5014607;28;20042;-85
2023/10/23 03:24:43;;;;;;;18.15;6.85;;;4.00;99.90;;;;;;5025679;28;20081;-80
2023/10/23 03:27:32;;;;;;;16.42;7.28;;;4.00;99.90;;;;;;5004997;28;20058;-84
2023/10/23 03:30:23;;;;;;;13.68;6.75;;;3.90;99.90;;;;;;5013818;28;20096;-85
2023/10/23 03:33:11;;;;;;;11.23;6.07;;;3.80;99.90;;;;;;5012316;28;20351;-79
2023/10/23 03:36:00;;;;;;;10.13;6.43;;;3.70;99.90;;;;;;5017073;28;20625;-85
2023/10/23 03:38:47;;;;;;;14.75;6.72;;;3.70;99.90;;;;;;4992379;28;20412;-85
2023/10/23 03:41:35;;;;;;;14.85;7.18;;;3.70;99.90;;;;;;5027974;28;20073;-84
2023/10/23 03:44:22;;;;;;;11.55;6.18;;;3.70;99.90;;;;;;5013841;28;20061;-85
2023/10/23 03:47:09;;;;;;;11.13;6.40;;;3.60;99.90;;;;;;5013216;28;20054;-83
2023/10/23 03:49:56;;;;;;;9.70;6.18;;;3.50;99.90;;;;;;5002025;28;20064;-84
2023/10/23 03:52:44;;;;;;;9.88;5.88;;;3.50;99.90;;;;;;5013686;28;20081;-85
2023/10/23 03:55:35;;;;;;;12.30;7.63;;;3.50;99.90;;;;;;5014386;28;20061;-84
2023/10/23 03:58:22;;;;;;;11.40;6.57;;;3.50;99.90;;;;;;5005658;28;20050;-83
2023/10/23 04:01:09;;;;;;;12.90;6.55;;;3.50;99.90;;;;;;5013842;28;20360;-84
2023/10/23 04:03:57;;;;;;;11.27;5.93;;;3.40;99.90;;;;;;5026887;28;20041;-85
2023/10/23 04:06:44;;;;;;;11.77;6.25;;;3.30;99.90;;;;;;5018450;28;20168;-85
2023/10/23 04:09:34;;;;;;;14.90;5.85;;;3.40;99.90;;;;;;5023263;28;20139;-79
2023/10/23 04:12:21;;;;;;;15.23;7.10;;;3.50;99.90;;;;;;5023185;28;20049;-83
2023/10/23 04:15:08;;;;;;;18.48;7.53;;;3.60;99.90;;;;;;5015001;28;20077;-83
2023/10/23 04:17:56;;;;;;;15.60;6.90;;;3.70;99.90;;;;;;5005178;28;20077;-84
2023/10/23 04:20:43;;;;;;;13.70;7.35;;;3.60;99.90;;;;;;5012772;28;20113;-83
2023/10/23 04:23:31;;;;;;;14.55;7.90;;;3.50;99.90;;;;;;5015846;28;20049;-83
2023/10/23 04:26:21;;;;;;;13.05;7.90;;;3.40;99.90;;;;;;5012894;28;20675;-83
2023/10/23 04:29:08;;;;;;;17.92;7.57;;;3.30;99.90;;;;;;5022981;28;20052;-85
2023/10/23 04:31:56;;;;;;;17.83;7.70;;;3.20;99.90;;;;;;5032022;28;20057;-85
2023/10/23 04:34:43;;;;;;;14.82;7.13;;;3.20;99.90;;;;;;5014858;28;20135;-83
2023/10/23 04:37:30;;;;;;;18.60;7.40;;;3.10;99.90;;;;;;5007580;28;20451;-83
2023/10/23 04:40:18;;;;;;;16.50;7.22;;;3.30;99.90;;;;;;5009542;28;20042;-83
2023/10/23 04:43:05;;;;;;;13.43;7.68;;;3.40;99.90;;;;;;5013218;28;20060;-78
2023/10/23 04:45:52;;;;;;;14.77;7.20;;;3.40;99.90;;;;;;5013278;28;20347;-83
2023/10/23 04:48:40;;;;;;;12.25;7.57;;;3.30;99.90;;;;;;5021726;28;20057;-83
2023/10/23 04:51:28;;;;;;;9.13;7.35;;;3.20;99.90;;;;;;5016217;28;20046;-79
2023/10/23 04:54:18;;;;;;;17.08;7.38;;;3.10;99.90;;;;;;5018606;28;20062;-82
2023/10/23 04:57:05;;;;;;;15.98;9.15;;;2.90;99.90;;;;;;5013405;28;20042;-84
2023/10/23 04:59:52;;;;;;;24.20;8.63;;;3.00;99.90;;;;;;5014780;28;20056;-83
2023/10/23 05:02:41;;;;;;;15.93;7.35;;;2.90;99.90;;;;;;5027760;28;20041;-84
2023/10/23 05:05:31;;;;;;;17.08;8.50;;;2.90;99.90;;;;;;5033641;28;20471;-85
2023/10/23 05:08:19;;;;;;;13.88;8.40;;;2.90;99.90;;;;;;5028131;28;20066;-84
2023/10/23 05:11:10;;;;;;;17.30;8.10;;;3.00;99.90;;;;;;4991236;28;20046;-84
2023/10/23 05:13:57;;;;;;;20.45;8.20;;;3.10;99.90;;;;;;5020088;28;20461;-84
2023/10/23 05:16:45;;;;;;;17.17;9.48;;;3.00;99.90;;;;;;5034786;28;20350;-84
2023/10/23 05:19:32;;;;;;;26.27;10.73;;;3.00;99.90;;;;;;5015106;28;20457;-84
2023/10/23 05:22:19;;;;;;;22.10;11.98;;;2.90;99.90;;;;;;5023635;28;20046;-83
2023/10/23 05:25:08;;;;;;;18.45;9.95;;;2.90;99.90;;;;;;5026636;28;20056;-80
2023/10/23 05:27:55;;;;;;;18.55;10.25;;;2.90;99.90;;;;;;5035948;28;20065;-83
2023/10/23 05:30:43;;;;;;;16.90;10.20;;;3.00;99.90;;;;;;5014853;28;20057;-83
2023/10/23 05:33:34;;;;;;;14.85;9.95;;;3.10;99.90;;;;;;5008628;28;20128;-77
2023/10/23 05:36:22;;;;;;;26.47;10.37;;;3.10;99.90;;;;;;5022727;28;20129;-83
2023/10/23 05:39:11;;;;;;;18.17;10.35;;;3.00;99.90;;;;;;5025597;28;20320;-84
2023/10/23 05:42:01;;;;;;;21.70;10.27;;;2.80;99.90;;;;;;5015142;28;20042;-82
2023/10/23 05:44:51;;;;;;;14.63;9.32;;;2.70;99.90;;;;;;4994535;28;20062;-81
2023/10/23 05:47:38;;;;;;;17.42;8.23;;;2.90;99.90;;;;;;5013284;28;20061;-82
2023/10/23 05:50:26;;;;;;;16.60;9.18;;;3.00;99.90;;;;;;5005231;28;20347;-83
2023/10/23 05:53:13;;;;;;;21.77;11.25;;;3.10;99.90;;;;;;5010421;28;20065;-84
2023/10/23 05:56:06;;;;;;;22.30;10.63;;;3.00;99.90;;;;;;5011567;28;20054;-84
2023/10/23 05:58:53;;;;;;;21.83;10.50;;;3.00;99.90;;;;;;5012420;28;20049;-85
2023/10/23 06:01:41;;;;;;;19.65;10.52;;;3.10;99.90;;;;;;5014432;28;20045;-84
2023/10/23 06:04:28;;;;;;;19.52;10.82;;;3.10;99.90;;;;;;5010104;28;20042;-83
2023/10/23 06:07:18;;;;;;;23.13;10.43;;;3.10;99.90;;;;;;5014123;28;20469;-83
2023/10/23 06:10:06;;;;;;;16.52;9.88;;;3.40;99.90;;;;;;5017489;28;20048;-83
2023/10/23 06:12:53;;;;;;;15.68;9.88;;;3.30;99.90;;;;;;5018877;28;20049;-84
2023/10/23 06:15:41;;;;;;;18.23;10.65;;;3.30;99.90;;;;;;5015743;28;20561;-84
2023/10/23 06:18:28;;;;;;;21.15;9.95;;;3.20;99.90;;;;;;5013896;28;20390;-84
2023/10/23 06:21:18;;;;;;;17.77;9.27;;;3.20;99.90;;;;;;5016238;28;20370;-84
2023/10/23 06:24:08;;;;;;;20.67;9.70;;;3.20;99.90;;;;;;5011562;28;20076;-84
2023/10/23 06:26:58;;;;;;;21.20;9.73;;;3.20;99.90;;;;;;5009972;28;20052;-85
2023/10/23 06:29:45;;;;;;;17.35;10.95;;;3.30;99.90;;;;;;5006603;28;20109;-84
2023/10/23 06:32:35;;;;;;;21.30;10.18;;;3.50;99.90;;;;;;5012697;28;20101;-85
2023/10/23 06:35:23;;;;;;;26.35;11.00;;;3.70;99.90;;;;;;5016182;28;20038;-86
2023/10/23 06:38:10;;;;;;;29.58;11.63;;;3.80;99.90;;;;;;5014021;28;20038;-84
2023/10/23 06:41:04;;;;;;;22.00;10.48;;;3.80;99.90;;;;;;5013440;28;20049;-84
2023/10/23 06:43:55;;;;;;;23.13;10.68;;;4.00;99.90;;;;;;5015723;28;20129;-83
2023/10/23 06:46:42;;;;;;;24.67;11.50;;;4.10;99.90;;;;;;5014911;28;20060;-85
2023/10/23 06:49:32;;;;;;;21.63;11.65;;;4.30;99.90;;;;;;5013264;28;20046;-83
2023/10/23 06:52:21;;;;;;;23.15;13.57;;;4.40;99.90;;;;;;5011077;28;20050;-84
2023/10/23 06:55:09;;;;;;;28.42;14.73;;;4.70;99.90;;;;;;5014569;28;20050;-84
2023/10/23 06:57:56;;;;;;;28.38;13.73;;;4.80;99.90;;;;;;5012331;28;20425;-83
2023/10/23 07:00:44;;;;;;;21.58;13.10;;;4.90;99.90;;;;;;5016014;28;20373;-81
2023/10/23 07:03:31;;;;;;;29.48;13.63;;;5.00;99.90;;;;;;4991163;28;20042;-84
2023/10/23 07:06:19;;;;;;;15.40;9.52;;;5.10;99.90;;;;;;5001207;28;20050;-84
2023/10/23 07:09:06;;;;;;;18.88;10.30;;;5.00;99.90;;;;;;5012992;28;20097;-80
2023/10/23 07:11:54;;;;;;;17.10;11.60;;;4.80;99.90;;;;;;5006827;28;20065;-84
2023/10/23 07:14:41;;;;;;;17.33;11.13;;;4.80;99.90;;;;;;5025187;28;20049;-84
2023/10/23 07:17:29;;;;;;;21.02;10.55;;;4.80;99.90;;;;;;5021704;28;20054;-82
2023/10/23 07:20:17;;;;;;;17.70;11.38;;;4.90;99.90;;;;;;5023641;28;20446;-84
2023/10/23 07:23:06;;;;;;;24.80;17.17;;;5.10;99.90;;;;;;5022087;28;20120;-83
2023/10/23 07:26:04;;;;;;;27.77;16.63;;;5.40;99.90;;;;;;5023109;28;20049;-84
2023/10/23 07:28:51;;;;;;;25.15;14.80;;;5.60;99.90;;;;;;5018267;28;20062;-84
2023/10/23 07:31:38;;;;;;;28.08;15.98;;;5.60;99.90;;;;;;5025259;28;20050;-84
2023/10/23 07:34:27;;;;;;;26.95;17.83;;;5.60;99.90;;;;;;5019499;28;20147;-83
2023/10/23 07:37:20;;;;;;;29.20;17.63;;;5.60;99.90;;;;;;5022988;28;20087;-84
2023/10/23 07:40:08;;;;;;;22.42;15.85;;;5.80;99.90;;;;;;5023837;28;20068;-84
2023/10/23 07:42:55;;;;;;;27.30;16.83;;;6.00;99.90;;;;;;5032325;28;20069;-84
2023/10/23 07:45:43;;;;;;;27.30;14.73;;;6.20;99.90;;;;;;5022993;28;20088;-85
2023/10/23 07:48:31;;;;;;;22.33;13.68;;;6.40;99.90;;;;;;5023533;28;20104;-82
2023/10/23 07:51:18;;;;;;;21.85;13.13;;;6.70;99.90;;;;;;5016006;28;20050;-80
2023/10/23 07:54:08;;;;;;;20.52;12.68;;;7.00;99.90;;;;;;5012053;28;20335;-85
2023/10/23 07:56:58;;;;;;;23.13;13.38;;;7.30;99.90;;;;;;5011786;28;20080;-85
2023/10/23 07:59:48;;;;;;;28.55;12.63;;;7.20;99.90;;;;;;5011437;28;20046;-85
2023/10/23 08:02:36;;;;;;;20.23;10.80;;;7.20;99.90;;;;;;5013666;28;20045;-83
2023/10/23 08:05:24;;;;;;;15.93;9.63;;;7.30;99.90;;;;;;5001230;28;20057;-84
2023/10/23 08:08:11;;;;;;;18.42;10.93;;;7.50;99.90;;;;;;4991441;28;20042;-84
2023/10/23 08:11:05;;;;;;;18.23;8.70;;;7.80;99.90;;;;;;5013476;28;20475;-85
2023/10/23 08:13:55;;;;;;;16.30;8.23;;;7.90;99.90;;;;;;5017618;28;20125;-84
2023/10/23 08:16:42;;;;;;;17.75;7.68;;;8.00;99.90;;;;;;5025871;28;20364;-82
2023/10/23 08:19:32;;;;;;;10.32;6.75;;;7.80;99.90;;;;;;5020310;28;20042;-82
2023/10/23 08:22:22;;;;;;;16.55;6.78;;;7.50;99.90;;;;;;5024340;28;20118;-85
2023/10/23 08:25:10;;;;;;;12.95;7.93;;;7.30;99.90;;;;;;5018712;28;20057;-82
2023/10/23 08:27:59;;;;;;;14.15;8.18;;;7.20;99.90;;;;;;5020490;28;20033;-83
2023/10/23 08:30:46;;;;;;;15.23;6.82;;;7.30;99.90;;;;;;5022422;28;20180;-85
2023/10/23 08:33:34;;;;;;;15.02;7.20;;;7.50;99.90;;;;;;5026697;28;20054;-84
2023/10/23 08:36:21;;;;;;;25.13;7.28;;;7.90;99.90;;;;;;5011900;28;20121;-83
2023/10/23 08:39:09;;;;;;;12.93;5.70;;;8.40;99.90;;;;;;5020358;28;20038;-82
2023/10/23 08:41:57;;;;;;;13.07;5.47;;;8.80;99.90;;;;;;5028817;28;20037;-78
2023/10/23 08:44:45;;;;;;;10.45;4.38;;;9.30;99.90;;;;;;5036179;28;20045;-81
2023/10/23 08:47:33;;;;;;;8.50;4.38;;;9.60;99.90;;;;;;5024537;28;20042;-85
2023/10/23 08:50:23;;;;;;;8.63;3.15;;;9.70;99.90;;;;;;5023930;28;20065;-85
2023/10/23 08:53:12;;;;;;;6.05;2.72;;;9.70;99.90;;;;;;5033868;28;20050;-84
2023/10/23 08:56:05;;;;;;;8.38;3.03;;;9.70;99.90;;;;;;5017096;28;20528;-86
2023/10/23 08:58:59;;;;;;;5.88;3.10;;;9.70;99.90;;;;;;5016854;28;20065;-86
2023/10/23 09:01:46;;;;;;;4.38;2.83;;;9.70;99.90;;;;;;5016723;28;20045;-85
2023/10/23 09:04:34;;;;;;;9.55;3.17;;;9.80;1.00;;;;;;5000428;28;20089;-83
2023/10/23 09:07:24;;;;;;;7.88;3.10;;;9.80;99.90;;;;;;5013061;28;20096;-84
2023/10/23 09:10:14;;;;;;;7.07;3.22;;;9.80;1.00;;;;;;5013752;28;20038;-86
2023/10/23 09:13:07;;;;;;;7.22;2.72;;;9.90;99.90;;;;;;4998468;28;20045;-84
2023/10/23 09:15:54;;;;;;;8.02;2.80;;;10.00;99.90;;;;;;4994530;28;20053;-85
2023/10/23 09:18:51;;;;;;;10.23;4.35;;;10.10;99.90;;;;;;5001820;28;20065;-85
2023/10/23 09:21:40;;;;;;;8.98;4.45;;;10.40;1.00;;;;;;4992896;28;20112;-82
2023/10/23 09:24:28;;;;;;;11.38;3.85;;;10.30;99.90;;;;;;5008983;28;20042;-85
2023/10/23 09:27:17;;;;;;;7.15;3.50;;;10.10;99.90;;;;;;4982857;28;20046;-84
2023/10/23 09:30:08;;;;;;;8.32;3.78;;;10.10;1.00;;;;;;5008541;28;20061;-83
2023/10/23 09:32:56;;;;;;;14.55;4.18;;;10.00;99.90;;;;;;5011166;28;20085;-86
2023/10/23 09:35:44;;;;;;;10.20;3.33;;;10.00;99.90;;;;;;5014946;28;20120;-86
2023/10/23 09:38:34;;;;;;;6.93;3.22;;;10.10;99.90;;;;;;5018102;28;20045;-86
2023/10/23 09:41:22;;;;;;;6.43;3.30;;;10.30;1.00;;;;;;5015929;28;20136;-86
2023/10/23 09:44:15;;;;;;;8.40;3.22;;;10.40;1.00;;;;;;5011452;28;20053;-83
2023/10/23 09:47:07;;;;;;;7.63;2.75;;;10.50;99.90;;;;;;5015477;28;20077;-84
2023/10/23 09:49:55;;;;;;;5.90;2.83;;;10.60;99.90;;;;;;5010419;28;20050;-83
2023/10/23 09:52:44;;;;;;;5.28;2.92;;;10.90;99.90;;;;;;5016201;28;20049;-83
2023/10/23 09:55:40;;;;;;;13.48;4.93;;;11.00;1.00;;;;;;5003305;28;20061;-85
2023/10/23 09:58:35;;;;;;;11.63;7.47;;;11.20;1.00;;;;;;5011824;28;20087;-85
2023/10/23 10:01:47;;;;;;;6.10;4.25;;;11.40;99.90;;;;;;5011750;28;20053;-84
2023/10/23 10:04:56;;;;;;;9.73;2.95;;;11.40;99.90;;;;;;5007328;28;20578;-85
2023/10/23 10:08:03;;;;;;;6.13;2.80;;;11.60;99.90;;;;;;5012038;28;20347;-85
2023/10/23 10:10:51;;;;;;;6.07;2.78;;;11.70;99.90;;;;;;5015498;28;20116;-85
2023/10/23 10:13:54;;;;;;;6.80;2.42;;;11.80;99.90;;;;;;5011957;28;20057;-85
2023/10/23 10:38:12;;;;;;;5.40;2.80;;;12.70;1.00;;;;;;4917361;29;20052;-84
2023/10/23 10:58:24;;;;;;;6.15;2.70;;;12.50;1.00;;;;;;4837089;29;20034;-86
2023/10/23 11:01:12;;;;;;;5.32;2.90;;;12.80;1.00;;;;;;4841973;29;20413;-85
2023/10/23 11:04:00;;;;;;;9.55;2.58;;;13.00;1.00;;;;;;4876946;29;20123;-87
2023/10/23 11:06:47;;;;;;;6.35;3.08;;;13.20;99.90;;;;;;4959106;28;20050;-86
2023/10/23 11:09:35;;;;;;;5.28;2.72;;;13.20;99.90;;;;;;4971198;28;20046;-86
2023/10/23 11:12:24;;;;;;;7.15;3.70;;;13.30;99.90;;;;;;4972851;28;20106;-81
2023/10/23 11:15:13;;;;;;;6.60;3.10;;;13.30;99.90;;;;;;4975556;28;20047;-87
2023/10/23 11:18:06;;;;;;;6.57;3.10;;;13.30;99.90;;;;;;4995540;28;20470;-86
2023/10/23 11:21:00;;;;;;;8.63;3.30;;;13.30;99.90;;;;;;5008520;28;20050;-85
2023/10/23 11:23:47;;;;;;;6.15;2.75;;;13.50;99.90;;;;;;5008908;28;20124;-85
2023/10/23 11:26:37;;;;;;;8.13;3.15;;;13.70;99.90;;;;;;5011069;28;20041;-86
2023/10/23 11:29:24;;;;;;;8.60;2.65;;;13.90;99.90;;;;;;5014181;28;20354;-85
2023/10/23 11:32:13;;;;;;;9.40;3.17;;;13.80;99.90;;;;;;4992564;28;20056;-87
2023/10/23 11:35:06;;;;;;;6.25;2.90;;;13.60;99.90;;;;;;5011910;28;20046;-87
2023/10/23 11:37:55;;;;;;;6.38;3.13;;;13.60;99.90;;;;;;5010929;28;20199;-85
2023/10/23 11:40:43;;;;;;;9.73;2.80;;;13.40;99.90;;;;;;5014160;28;20046;-84
2023/10/23 11:43:31;;;;;;;6.57;2.90;;;13.20;99.90;;;;;;5012209;28;20065;-87
2023/10/23 11:46:18;;;;;;;5.95;2.70;;;13.00;99.90;;;;;;5011153;28;20061;-87
2023/10/23 11:49:06;;;;;;;7.22;3.17;;;12.70;99.90;;;;;;4994239;28;20050;-86
2023/10/23 11:51:56;;;;;;;7.10;3.00;;;12.50;99.90;;;;;;5014309;28;20053;-86
2023/10/23 11:54:46;;;;;;;8.32;3.45;;;12.30;99.90;;;;;;5009421;28;20149;-86
2023/10/23 11:57:33;;;;;;;10.95;3.67;;;12.20;99.90;;;;;;5007064;28;20435;-86
2023/10/23 12:00:22;;;;;;;12.27;4.00;;;12.10;1.00;;;;;;5005713;28;20056;-83
2023/10/23 12:03:10;;;;;;;9.70;4.13;;;12.00;26.40;;;;;;5009624;28;20443;-85
2023/10/23 12:05:57;;;;;;;7.00;3.25;;;12.00;99.90;;;;;;5013802;28;20111;-84
2023/10/23 12:08:47;;;;;;;9.38;3.45;;;12.10;99.90;;;;;;5013101;28;20064;-84
2023/10/23 12:11:47;;;;;;;7.65;3.55;;;12.00;99.90;;;;;;5016590;28;20050;-84
2023/10/23 12:14:37;;;;;;;9.90;2.97;;;12.00;99.90;;;;;;5019014;28;20064;-85
2023/10/23 12:17:27;;;;;;;6.97;3.30;;;11.90;99.90;;;;;;5016602;28;20050;-79
2023/10/23 12:20:21;;;;;;;9.27;3.17;;;11.90;99.90;;;;;;5017678;28;20388;-84
2023/10/23 12:23:09;;;;;;;8.50;3.40;;;12.00;99.90;;;;;;5014953;28;20125;-86
2023/10/23 12:25:57;;;;;;;8.13;2.92;;;12.00;99.90;;;;;;5016695;28;20053;-87
2023/10/23 12:28:45;;;;;;;8.85;3.42;;;12.10;99.90;;;;;;5013922;28;20466;-88
2023/10/23 12:31:32;;;;;;;7.80;3.75;;;12.10;99.90;;;;;;4995914;28;20483;-88
2023/10/23 12:34:46;;;;;;;7.43;4.10;;;12.00;99.90;;;;;;5003993;28;20140;-87
2023/10/23 12:37:37;;;;;;;9.05;4.30;;;12.10;99.90;;;;;;5005733;28;20068;-88
2023/10/23 12:40:27;;;;;;;9.10;4.20;;;12.20;99.90;;;;;;5012827;28;20176;-87
2023/10/23 12:43:20;;;;;;;9.70;4.38;;;12.20;99.90;;;;;;5013872;28;20046;-88
2023/10/23 12:46:07;;;;;;;8.90;4.53;;;12.30;99.90;;;;;;5013155;28;20053;-87
2023/10/23 12:48:55;;;;;;;9.40;4.05;;;12.30;1.00;;;;;;5011547;28;20061;-87
2023/10/23 12:51:43;;;;;;;17.42;6.00;;;12.20;1.00;;;;;;5013771;28;20543;-87
2023/10/23 12:54:35;;;;;;;9.90;4.18;;;12.00;99.90;;;;;;5015333;28;20049;-87
2023/10/23 12:57:22;;;;;;;8.27;2.58;;;12.00;99.90;;;;;;5013014;28;20145;-86
2023/10/23 13:00:13;;;;;;;7.38;3.45;;;12.10;1.00;;;;;;5013315;28;20038;-84
2023/10/23 13:03:04;;;;;;;13.40;4.65;;;12.10;99.90;;;;;;5012595;28;20136;-87
2023/10/23 13:05:51;;;;;;;7.78;4.15;;;12.20;17.20;;;;;;5010930;28;20034;-86
2023/10/23 13:08:40;;;;;;;7.72;4.15;;;12.30;1.00;;;;;;5001093;28;20050;-87
2023/10/23 13:11:30;;;;;;;14.32;6.22;;;12.20;1.00;;;;;;5006175;28;20108;-86
2023/10/23 13:14:17;;;;;;;13.05;4.97;;;12.00;99.90;;;;;;5023030;28;20042;-86
2023/10/23 13:17:05;;;;;;;10.38;3.88;;;11.90;99.90;;;;;;5015136;28;20381;-87
2023/10/23 13:19:57;;;;;;;9.07;4.72;;;11.80;1.00;;;;;;5014459;28;20315;-87
2023/10/23 13:23:04;;;;;;;8.95;4.47;;;11.60;29.20;;;;;;5006846;28;20041;-85
2023/10/23 13:25:54;;;;;;;9.15;4.45;;;11.60;99.90;;;;;;5016124;28;20048;-85
2023/10/23 13:28:59;;;;;;;9.82;4.97;;;11.80;99.90;;;;;;5015197;28;20053;-86
2023/10/23 13:31:48;;;;;;;6.32;4.50;;;11.80;99.90;;;;;;5015057;28;20070;-86
2023/10/23 13:34:37;;;;;;;13.75;4.78;;;11.90;1.00;;;;;;5012960;28;20050;-86
2023/10/23 13:37:25;;;;;;;10.65;4.18;;;11.90;99.90;;;;;;5014570;28;20049;-83
2023/10/23 13:40:15;;;;;;;7.88;3.58;;;11.90;99.90;;;;;;5014906;28;20045;-87
2023/10/23 13:43:03;;;;;;;6.45;3.58;;;12.00;47.50;;;;;;5016566;28;20033;-79
2023/10/23 13:45:51;;;;;;;9.70;4.00;;;12.10;99.90;;;;;;4994169;28;20042;-88
2023/10/23 13:48:42;;;;;;;9.75;4.28;;;12.20;99.90;;;;;;5011711;28;20073;-87
2023/10/23 13:51:29;;;;;;;10.30;4.28;;;12.20;1.00;;;;;;5015386;28;20053;-87
2023/10/23 13:54:17;;;;;;;11.40;4.35;;;12.30;99.90;;;;;;5003611;28;20042;-88
2023/10/23 13:57:04;;;;;;;9.15;3.65;;;12.40;23.70;;;;;;5021282;28;20046;-89
2023/10/23 13:59:53;;;;;;;8.25;3.65;;;12.40;99.90;;;;;;5003597;28;20052;-87
2023/10/23 14:02:41;;;;;;;7.80;3.28;;;12.50;99.90;;;;;;5010120;28;20042;-87
2023/10/23 14:05:28;;;;;;;5.78;3.40;;;12.50;1.00;;;;;;5018608;28;20041;-87
2023/10/23 14:08:18;;;;;;;7.43;3.35;;;12.50;99.90;;;;;;5015305;28;20064;-86
2023/10/23 14:11:27;;;;;;;10.13;3.40;;;12.40;99.90;;;;;;5014829;28;20050;-84
2023/10/23 14:14:36;;;;;;;6.45;3.35;;;12.30;99.90;;;;;;5015197;28;20073;-88
2023/10/23 14:17:23;;;;;;;7.57;3.30;;;12.20;99.90;;;;;;5014319;28;20045;-86
2023/10/23 14:20:11;;;;;;;8.70;4.32;;;12.20;99.90;;;;;;5015083;28;20049;-87
2023/10/23 14:23:03;;;;;;;7.68;3.72;;;12.30;99.90;;;;;;5014851;28;20053;-87
2023/10/23 14:25:51;;;;;;;10.32;3.75;;;12.20;99.90;;;;;;5008022;28;20129;-85
2023/10/23 14:28:38;;;;;;;10.18;4.00;;;12.20;99.90;;;;;;5016748;28;20064;-87
2023/10/23 14:31:26;;;;;;;8.70;4.22;;;12.20;99.90;;;;;;5017207;28;20187;-86
2023/10/23 14:34:14;;;;;;;6.07;3.65;;;12.20;99.90;;;;;;5014880;28;20053;-85
2023/10/23 14:37:01;;;;;;;5.43;3.78;;;12.20;99.90;;;;;;5011352;28;20378;-87
2023/10/23 14:39:48;;;;;;;10.50;4.35;;;12.20;99.90;;;;;;5012751;28;20414;-87
2023/10/23 14:42:37;;;;;;;12.10;4.03;;;12.20;99.90;;;;;;5015493;28;20508;-86
2023/10/23 14:45:26;;;;;;;8.02;4.32;;;12.30;99.90;;;;;;5015469;28;20042;-87
2023/10/23 14:48:14;;;;;;;11.68;4.75;;;12.30;57.30;;;;;;5009565;28;20431;-84
2023/10/23 14:51:01;;;;;;;12.63;4.07;;;12.20;1.00;;;;;;5013864;28;20053;-83
2023/10/23 14:53:50;;;;;;;8.45;4.32;;;12.30;86.20;;;;;;5013910;28;20415;-83
2023/10/23 14:56:38;;;;;;;10.55;4.43;;;12.30;83.50;;;;;;5009355;28;20153;-85
2023/10/23 14:59:26;;;;;;;11.90;4.45;;;12.30;1.50;;;;;;5006985;28;20057;-86
2023/10/23 15:02:14;;;;;;;12.05;4.35;;;12.20;42.70;;;;;;5011237;28;20046;-87
2023/10/23 15:05:01;;;;;;;12.90;5.05;;;12.20;1.00;;;;;;5010026;28;20041;-86
2023/10/23 15:07:49;;;;;;;14.63;5.25;;;12.20;1.00;;;;;;5016786;28;20041;-86
2023/10/23 15:10:37;;;;;;;12.18;4.55;;;12.10;89.60;;;;;;5011230;28;20054;-85
2023/10/23 15:13:24;;;;;;;9.70;4.35;;;12.10;36.30;;;;;;5014244;28;20045;-85
2023/10/23 15:16:14;;;;;;;7.28;4.53;;;12.10;1.00;;;;;;5020164;28;20037;-85
2023/10/23 15:19:01;;;;;;;6.35;4.47;;;12.00;99.90;;;;;;5011317;28;20048;-85